»·PEaware :: N132EF KMYF-KPSP

N132EF :: KMYF-KPSP

FLIGHT INFORMATION

Flight Status: Arrived
Operator: Privately registered:
United States
More flights under this callsign
Pilot: Ron R. (25532)
Aircraft: BEECH AIRCRAFT DUKE
(BE60)
More flights by this aircraft type
Origin: KMYF Montgomery
United States
Destination: KPSP Palm Springs Intl
United States
More flights between these airports :: More routes between these airports
Route: +OCN V208 JLI V514 TRM
File this flight plan on PilotEdge
Remarks:
Altitude:
(Current/Filed)
11,000ft
Speed:
(Current/Filed)
200kts
Departed: 26-Aug-19 09:04 PM
Arrived: 26-Aug-19 09:43 PM
Distance/Time
Traveled:
68nm/0:39
Distance/Time
To Go:
Arrived

Flight Plot

Page will automatically refresh every two minutes.

Flight plan parsing failed; only flown route is shown


Map Options




Map Legend


Flown Route
Filed Route
Departure Airport
Arrival Airport
Navaid (VOR, NDB)
Fix

Horizontal Profiles

Position Reports

Time Latitude Longitude Heading Altitude Ground
Speed
26-Aug-19 20:32 32.813286 -117.140522 21 430ft 0kts
26-Aug-19 20:33 32.813286 -117.140522 21 430ft 0kts
26-Aug-19 20:34 32.813286 -117.140522 21 430ft 0kts
26-Aug-19 20:35 32.813286 -117.140522 21 430ft 0kts
26-Aug-19 20:36 32.813287 -117.140522 21 430ft 0kts
26-Aug-19 20:37 32.813289 -117.140521 21 430ft 0kts
26-Aug-19 20:38 32.813291 -117.140520 21 430ft 0kts
26-Aug-19 20:39 32.813293 -117.140519 21 430ft 0kts
26-Aug-19 20:40 32.813296 -117.140518 21 430ft 0kts
26-Aug-19 20:41 32.813298 -117.140517 21 430ft 0kts
26-Aug-19 20:42 32.813300 -117.140516 21 430ft 0kts
26-Aug-19 20:43 32.813303 -117.140514 21 430ft 0kts
26-Aug-19 20:44 32.813305 -117.140513 21 430ft 0kts
26-Aug-19 20:45 32.813307 -117.140512 21 430ft 0kts
26-Aug-19 20:46 32.813309 -117.140511 21 430ft 0kts
26-Aug-19 20:47 32.813312 -117.140510 21 430ft 0kts
26-Aug-19 20:48 32.813614 -117.140063 61 430ft 5kts
26-Aug-19 20:49 32.812785 -117.136612 114 430ft 12kts
26-Aug-19 20:50 32.811572 -117.132992 58 430ft 12kts
26-Aug-19 20:51 32.812232 -117.131856 326 430ft 0kts
26-Aug-19 20:52 32.812234 -117.131858 326 430ft 0kts
26-Aug-19 20:53 32.812235 -117.131859 326 430ft 0kts
26-Aug-19 20:54 32.812236 -117.131860 326 430ft 0kts
26-Aug-19 20:55 32.812241 -117.131863 326 430ft 0kts
26-Aug-19 20:56 32.812243 -117.131865 326 430ft 0kts
26-Aug-19 20:57 32.812245 -117.131867 326 430ft 0kts
26-Aug-19 20:58 32.812247 -117.131868 326 430ft 0kts
26-Aug-19 20:59 32.812249 -117.131870 326 430ft 0kts
26-Aug-19 21:00 32.812572 -117.132035 24 430ft 1kts
26-Aug-19 21:01 32.812589 -117.132026 24 430ft 0kts
26-Aug-19 21:02 32.813278 -117.132257 296 430ft 0kts
26-Aug-19 21:03 32.823679 -117.159109 289 1114ft 139kts
26-Aug-19 21:04 32.832152 -117.203079 279 2994ft 137kts
26-Aug-19 21:05 32.840807 -117.250522 282 4599ft 154kts
26-Aug-19 21:06 32.852106 -117.300986 308 5915ft 171kts
26-Aug-19 21:07 32.903999 -117.317291 348 5995ft 212kts
26-Aug-19 21:08 32.959150 -117.332985 345 5989ft 198kts
26-Aug-19 21:09 33.012760 -117.349057 345 5987ft 199kts
26-Aug-19 21:10 33.046943 -117.323429 84 7170ft 159kts
26-Aug-19 21:11 33.053893 -117.266690 81 8694ft 170kts
26-Aug-19 21:12 33.060700 -117.214116 81 10072ft 154kts
26-Aug-19 21:13 33.067340 -117.162635 82 10975ft 171kts
26-Aug-19 21:14 33.075313 -117.100572 82 11004ft 200kts
26-Aug-19 21:15 33.083944 -117.033393 81 11012ft 207kts
26-Aug-19 21:16 33.092653 -116.965309 82 11021ft 208kts
26-Aug-19 21:17 33.101389 -116.896691 82 10988ft 209kts
26-Aug-19 21:19 33.110091 -116.828026 82 10987ft 209kts
26-Aug-19 21:20 33.118751 -116.759378 81 10984ft 209kts
26-Aug-19 21:21 33.127366 -116.690922 81 10978ft 203kts
26-Aug-19 21:22 33.135556 -116.625329 82 10967ft 196kts
26-Aug-19 21:23 33.157795 -116.569417 34 10966ft 197kts
26-Aug-19 21:24 33.202816 -116.531906 37 11009ft 194kts
26-Aug-19 21:25 33.246392 -116.493932 37 11079ft 196kts
26-Aug-19 21:26 33.290813 -116.455235 37 11024ft 199kts
26-Aug-19 21:27 33.335641 -116.416183 37 10995ft 198kts
26-Aug-19 21:28 33.380142 -116.377369 37 10979ft 198kts
26-Aug-19 21:29 33.424592 -116.338539 37 10964ft 198kts
26-Aug-19 21:30 33.469313 -116.299483 36 10182ft 197kts
26-Aug-19 21:31 33.513015 -116.261088 36 9181ft 189kts
26-Aug-19 21:32 33.554616 -116.224638 36 8925ft 178kts
26-Aug-19 21:33 33.594112 -116.190012 36 8121ft 176kts
26-Aug-19 21:34 33.636269 -116.177226 327 6634ft 164kts
26-Aug-19 21:35 33.663061 -116.220111 302 5153ft 166kts
26-Aug-19 21:36 33.690369 -116.266741 303 3660ft 173kts
26-Aug-19 21:37 33.718483 -116.314306 303 2952ft 179kts
26-Aug-19 21:38 33.745158 -116.359203 303 2963ft 153kts
26-Aug-19 21:39 33.765748 -116.403358 291 2817ft 152kts
26-Aug-19 21:39 33.778779 -116.442049 290 2383ft 141kts
26-Aug-19 21:41 33.801347 -116.482515 323 1003ft 113kts
26-Aug-19 21:41 33.820699 -116.499660 323 491ft 96kts
26-Aug-19 21:43 33.829559 -116.508330 258 480ft 0kts
26-Aug-19 21:43 33.828981 -116.508735 143 480ft 6kts
26-Aug-19 21:44 33.826798 -116.506804 147 480ft 11kts
26-Aug-19 21:46 33.825318 -116.508836 180 480ft 3kts
26-Aug-19 21:46 33.825231 -116.508836 180 480ft 0kts
26-Aug-19 21:47 33.825230 -116.508836 180 480ft 0kts

Navigation Log

Ident Type
Flight plan parsing failed, navigation log unavailable